sensor_id;sensor_type;location;lat;lon;timestamp;pressure;altitude;pressure_sealevel;temperature;humidity
56504;BME280;48812;51.606;-0.114;2023-04-28T00:01:29;100179.56;;;17.14;58.34
56504;BME280;48812;51.606;-0.114;2023-04-28T00:04:01;100168.88;;;17.14;57.99
56504;BME280;48812;51.606;-0.114;2023-04-28T00:06:33;100172.53;;;17.13;58.32
56504;BME280;48812;51.606;-0.114;2023-04-28T00:09:06;100161.84;;;17.13;57.73
56504;BME280;48812;51.606;-0.114;2023-04-28T00:11:45;100160.09;;;17.12;58.27
56504;BME280;48812;51.606;-0.114;2023-04-28T00:14:17;100159.25;;;17.11;57.66
56504;BME280;48812;51.606;-0.114;2023-04-28T00:16:50;100158.41;;;17.11;57.90
56504;BME280;48812;51.606;-0.114;2023-04-28T00:19:24;100152.16;;;17.10;57.59
56504;BME280;48812;51.606;-0.114;2023-04-28T00:21:56;100150.38;;;17.11;57.69
56504;BME280;48812;51.606;-0.114;2023-04-28T00:24:28;100139.78;;;17.09;57.62
56504;BME280;48812;51.606;-0.114;2023-04-28T00:27:01;100137.19;;;17.08;57.98
56504;BME280;48812;51.606;-0.114;2023-04-28T00:29:34;100142.53;;;17.08;57.67
56504;BME280;48812;51.606;-0.114;2023-04-28T00:32:06;100134.53;;;17.08;57.78
56504;BME280;48812;51.606;-0.114;2023-04-28T00:34:39;100131.84;;;17.08;58.02
56504;BME280;48812;51.606;-0.114;2023-04-28T00:37:15;100123.91;;;17.06;57.86
56504;BME280;48812;51.606;-0.114;2023-04-28T00:39:52;100130.13;;;17.07;57.74
56504;BME280;48812;51.606;-0.114;2023-04-28T00:42:25;100126.69;;;17.05;57.85
56504;BME280;48812;51.606;-0.114;2023-04-28T00:44:58;100123.03;;;17.06;57.64
56504;BME280;48812;51.606;-0.114;2023-04-28T00:47:36;100121.34;;;17.05;57.47
56504;BME280;48812;51.606;-0.114;2023-04-28T00:50:09;100130.28;;;17.04;57.65
56504;BME280;48812;51.606;-0.114;2023-04-28T00:52:41;100124.94;;;17.04;57.88
56504;BME280;48812;51.606;-0.114;2023-04-28T00:55:14;100122.28;;;17.04;57.61
56504;BME280;48812;51.606;-0.114;2023-04-28T00:57:47;100124.94;;;17.04;57.45
56504;BME280;48812;51.606;-0.114;2023-04-28T01:00:20;100117.91;;;17.03;57.64
56504;BME280;48812;51.606;-0.114;2023-04-28T01:02:52;100117.91;;;17.03;57.41
56504;BME280;48812;51.606;-0.114;2023-04-28T01:05:26;100118.81;;;17.02;57.54
56504;BME280;48812;51.606;-0.114;2023-04-28T01:07:59;100119.75;;;17.01;57.72
56504;BME280;48812;51.606;-0.114;2023-04-28T01:10:31;100119.75;;;17.01;57.64
56504;BME280;48812;51.606;-0.114;2023-04-28T01:13:10;100118.91;;;17.00;57.61
56504;BME280;48812;51.606;-0.114;2023-04-28T01:15:43;100118.06;;;17.00;57.42
56504;BME280;48812;51.606;-0.114;2023-04-28T01:18:16;100116.31;;;16.99;57.50
56504;BME280;48812;51.606;-0.114;2023-04-28T01:20:48;100121.66;;;16.99;57.34
56504;BME280;48812;51.606;-0.114;2023-04-28T01:23:21;100110.97;;;16.99;57.97
56504;BME280;48812;51.606;-0.114;2023-04-28T01:25:54;100106.56;;;16.98;57.33
56504;BME280;48812;51.606;-0.114;2023-04-28T01:28:27;100111.91;;;16.98;57.68
56504;BME280;48812;51.606;-0.114;2023-04-28T01:30:59;100113.75;;;16.97;57.78
56504;BME280;48812;51.606;-0.114;2023-04-28T01:33:31;100103.91;;;16.98;58.10
56504;BME280;48812;51.606;-0.114;2023-04-28T01:36:03;100107.63;;;16.95;58.00
56504;BME280;48812;51.606;-0.114;2023-04-28T01:38:36;100094.28;;;16.95;58.08
56504;BME280;48812;51.606;-0.114;2023-04-28T01:41:08;100098.75;;;16.94;57.74
56504;BME280;48812;51.606;-0.114;2023-04-28T01:43:41;100098.75;;;16.94;58.05
56504;BME280;48812;51.606;-0.114;2023-04-28T01:46:14;100096.09;;;16.94;57.55
56504;BME280;48812;51.606;-0.114;2023-04-28T01:48:47;100097.88;;;16.94;57.61
56504;BME280;48812;51.606;-0.114;2023-04-28T01:51:19;100094.34;;;16.93;58.12
56504;BME280;48812;51.606;-0.114;2023-04-28T01:53:51;100091.69;;;16.93;58.02
56504;BME280;48812;51.606;-0.114;2023-04-28T01:56:24;100089.94;;;16.92;57.72
56504;BME280;48812;51.606;-0.114;2023-04-28T01:58:58;100086.44;;;16.92;57.69
56504;BME280;48812;51.606;-0.114;2023-04-28T02:01:31;100089.09;;;16.92;57.29
56504;BME280;48812;51.606;-0.114;2023-04-28T02:04:03;100083.84;;;16.90;57.77
56504;BME280;48812;51.606;-0.114;2023-04-28T02:06:38;100089.19;;;16.90;57.60
56504;BME280;48812;51.606;-0.114;2023-04-28T02:09:12;100090.13;;;16.89;57.57
56504;BME280;48812;51.606;-0.114;2023-04-28T02:11:44;100095.47;;;16.89;57.50
56504;BME280;48812;51.606;-0.114;2023-04-28T02:14:17;100094.59;;;16.89;58.06
56504;BME280;48812;51.606;-0.114;2023-04-28T02:16:49;100094.59;;;16.89;57.91
56504;BME280;48812;51.606;-0.114;2023-04-28T02:19:21;100092.91;;;16.88;57.56
56504;BME280;48812;51.606;-0.114;2023-04-28T02:21:54;100097.34;;;16.87;57.75
56504;BME280;48812;51.606;-0.114;2023-04-28T02:24:26;100094.69;;;16.87;58.11
56504;BME280;48812;51.606;-0.114;2023-04-28T02:26:59;100096.50;;;16.87;57.71
56504;BME280;48812;51.606;-0.114;2023-04-28T02:29:32;100101.84;;;16.87;57.83
56504;BME280;48812;51.606;-0.114;2023-04-28T02:32:04;100101.00;;;16.86;57.96
56504;BME280;48812;51.606;-0.114;2023-04-28T02:34:36;100095.75;;;16.85;57.63
56504;BME280;48812;51.606;-0.114;2023-04-28T02:37:08;100085.13;;;16.83;57.60
56504;BME280;48812;51.606;-0.114;2023-04-28T02:39:41;100091.34;;;16.84;57.47
56504;BME280;48812;51.606;-0.114;2023-04-28T02:42:13;100097.53;;;16.84;57.62
56504;BME280;48812;51.606;-0.114;2023-04-28T02:44:45;100090.47;;;16.83;58.14
56504;BME280;48812;51.606;-0.114;2023-04-28T02:47:17;100094.94;;;16.83;57.68
56504;BME280;48812;51.606;-0.114;2023-04-28T02:49:50;100094.94;;;16.83;57.65
56504;BME280;48812;51.606;-0.114;2023-04-28T02:52:22;100093.22;;;16.82;57.65
56504;BME280;48812;51.606;-0.114;2023-04-28T02:54:54;100093.22;;;16.82;58.09
56504;BME280;48812;51.606;-0.114;2023-04-28T02:57:29;100091.41;;;16.82;58.17
56504;BME280;48812;51.606;-0.114;2023-04-28T03:00:03;100091.50;;;16.81;57.91
56504;BME280;48812;51.606;-0.114;2023-04-28T03:02:44;100090.66;;;16.80;57.71
56504;BME280;48812;51.606;-0.114;2023-04-28T03:05:17;100089.78;;;16.80;58.35
56504;BME280;48812;51.606;-0.114;2023-04-28T03:07:49;100096.91;;;16.79;57.62
56504;BME280;48812;51.606;-0.114;2023-04-28T03:10:22;100087.22;;;16.78;57.87
56504;BME280;48812;51.606;-0.114;2023-04-28T03:12:54;100101.41;;;16.78;58.07
56504;BME280;48812;51.606;-0.114;2023-04-28T03:15:26;100093.47;;;16.77;57.86
56504;BME280;48812;51.606;-0.114;2023-04-28T03:17:59;100082.81;;;16.77;57.87
56504;BME280;48812;51.606;-0.114;2023-04-28T03:20:31;100088.13;;;16.77;57.85
56504;BME280;48812;51.606;-0.114;2023-04-28T03:23:04;100085.47;;;16.77;57.58
56504;BME280;48812;51.606;-0.114;2023-04-28T03:25:37;100083.72;;;16.76;58.27
56504;BME280;48812;51.606;-0.114;2023-04-28T03:28:09;100094.41;;;16.76;57.71
56504;BME280;48812;51.606;-0.114;2023-04-28T03:30:41;100092.72;;;16.75;57.71
56504;BME280;48812;51.606;-0.114;2023-04-28T03:33:14;100087.38;;;16.75;57.94
56504;BME280;48812;51.606;-0.114;2023-04-28T03:35:46;100087.38;;;16.75;58.23
56504;BME280;48812;51.606;-0.114;2023-04-28T03:38:19;100095.47;;;16.73;57.74
56504;BME280;48812;51.606;-0.114;2023-04-28T03:40:53;100090.13;;;16.73;57.64
56504;BME280;48812;51.606;-0.114;2023-04-28T03:43:57;100091.91;;;16.73;57.54
56504;BME280;48812;51.606;-0.114;2023-04-28T03:46:35;100097.25;;;16.73;57.76
56504;BME280;48812;51.606;-0.114;2023-04-28T03:49:07;100099.06;;;16.72;58.29
56504;BME280;48812;51.606;-0.114;2023-04-28T03:51:39;100093.72;;;16.72;57.96
56504;BME280;48812;51.606;-0.114;2023-04-28T03:54:12;100096.41;;;16.72;57.88
56504;BME280;48812;51.606;-0.114;2023-04-28T03:56:45;100095.53;;;16.72;57.67
56504;BME280;48812;51.606;-0.114;2023-04-28T03:59:17;100100.97;;;16.70;57.76
56504;BME280;48812;51.606;-0.114;2023-04-28T04:01:49;100096.47;;;16.71;58.19
56504;BME280;48812;51.606;-0.114;2023-04-28T04:04:21;100093.03;;;16.69;58.20
56504;BME280;48812;51.606;-0.114;2023-04-28T04:06:54;100094.78;;;16.70;57.87
56504;BME280;48812;51.606;-0.114;2023-04-28T04:09:27;100095.72;;;16.69;57.97
56504;BME280;48812;51.606;-0.114;2023-04-28T04:11:59;100100.19;;;16.68;57.94
56504;BME280;48812;51.606;-0.114;2023-04-28T04:14:32;100102.88;;;16.68;57.69
56504;BME280;48812;51.606;-0.114;2023-04-28T04:17:04;100096.63;;;16.68;57.87
56504;BME280;48812;51.606;-0.114;2023-04-28T04:19:37;100107.31;;;16.68;57.69
56504;BME280;48812;51.606;-0.114;2023-04-28T04:22:09;100105.63;;;16.67;57.66
56504;BME280;48812;51.606;-0.114;2023-04-28T04:24:41;100100.28;;;16.67;57.95
56504;BME280;48812;51.606;-0.114;2023-04-28T04:27:13;100106.53;;;16.66;58.30
56504;BME280;48812;51.606;-0.114;2023-04-28T04:29:45;100106.53;;;16.66;57.93
56504;BME280;48812;51.606;-0.114;2023-04-28T04:32:19;100122.56;;;16.66;58.13
56504;BME280;48812;51.606;-0.114;2023-04-28T04:34:51;100111.88;;;16.66;57.72
56504;BME280;48812;51.606;-0.114;2023-04-28T04:37:24;100115.50;;;16.65;58.39
56504;BME280;48812;51.606;-0.114;2023-04-28T04:40:01;100124.38;;;16.65;58.12
56504;BME280;48812;51.606;-0.114;2023-04-28T04:42:40;100120.94;;;16.63;57.77
56504;BME280;48812;51.606;-0.114;2023-04-28T04:45:17;100119.13;;;16.64;57.73
56504;BME280;48812;51.606;-0.114;2023-04-28T04:47:51;100126.28;;;16.63;57.67
56504;BME280;48812;51.606;-0.114;2023-04-28T04:50:23;100128.06;;;16.63;57.88
56504;BME280;48812;51.606;-0.114;2023-04-28T04:52:56;100139.63;;;16.63;57.95
56504;BME280;48812;51.606;-0.114;2023-04-28T04:55:29;100129.03;;;16.62;57.68
56504;BME280;48812;51.606;-0.114;2023-04-28T04:58:02;100137.03;;;16.62;58.27
56504;BME280;48812;51.606;-0.114;2023-04-28T05:00:49;100132.53;;;16.62;57.71
56504;BME280;48812;51.606;-0.114;2023-04-28T05:03:23;100132.63;;;16.61;58.05
56504;BME280;48812;51.606;-0.114;2023-04-28T05:05:57;100142.44;;;16.60;57.72
56504;BME280;48812;51.606;-0.114;2023-04-28T05:08:37;100143.31;;;16.61;58.02
56504;BME280;48812;51.606;-0.114;2023-04-28T05:11:09;100145.97;;;16.61;57.84
56504;BME280;48812;51.606;-0.114;2023-04-28T05:13:44;100142.44;;;16.60;58.00
56504;BME280;48812;51.606;-0.114;2023-04-28T05:16:17;100137.97;;;16.61;57.84
56504;BME280;48812;51.606;-0.114;2023-04-28T05:19:19;100146.91;;;16.59;57.67
56504;BME280;48812;51.606;-0.114;2023-04-28T05:21:52;100146.91;;;16.59;57.97
56504;BME280;48812;51.606;-0.114;2023-04-28T05:24:26;100158.53;;;16.58;57.91
56504;BME280;48812;51.606;-0.114;2023-04-28T05:27:00;100148.81;;;16.57;57.66
56504;BME280;48812;51.606;-0.114;2023-04-28T05:29:33;100150.53;;;16.58;58.02
56504;BME280;48812;51.606;-0.114;2023-04-28T05:32:06;100153.22;;;16.58;58.34
56504;BME280;48812;51.606;-0.114;2023-04-28T05:34:38;100157.56;;;16.59;57.95
56504;BME280;48812;51.606;-0.114;2023-04-28T05:37:10;100150.63;;;16.57;57.83
56504;BME280;48812;51.606;-0.114;2023-04-28T05:39:44;100162.06;;;16.59;57.83
56504;BME280;48812;51.606;-0.114;2023-04-28T05:42:17;100169.22;;;16.58;58.34
56504;BME280;48812;51.606;-0.114;2023-04-28T05:44:49;100162.06;;;16.59;58.03
56504;BME280;48812;51.606;-0.114;2023-04-28T05:47:21;100169.13;;;16.60;57.97
56504;BME280;48812;51.606;-0.114;2023-04-28T05:49:55;100170.00;;;16.61;58.21
56504;BME280;48812;51.606;-0.114;2023-04-28T05:52:27;100171.72;;;16.62;57.99
56504;BME280;48812;51.606;-0.114;2023-04-28T05:54:59;100178.78;;;16.63;58.06
56504;BME280;48812;51.606;-0.114;2023-04-28T05:57:31;100176.03;;;16.64;57.72
56504;BME280;48812;51.606;-0.114;2023-04-28T06:00:21;100180.34;;;16.67;57.96
56504;BME280;48812;51.606;-0.114;2023-04-28T06:02:56;100185.53;;;16.70;58.30
56504;BME280;48812;51.606;-0.114;2023-04-28T06:05:29;100185.44;;;16.71;58.25
56504;BME280;48812;51.606;-0.114;2023-04-28T06:08:02;100183.47;;;16.75;58.05
56504;BME280;48812;51.606;-0.114;2023-04-28T06:10:35;100186.91;;;16.77;58.02
56504;BME280;48812;51.606;-0.114;2023-04-28T06:13:07;100193.81;;;16.81;57.99
56504;BME280;48812;51.606;-0.114;2023-04-28T06:15:43;100202.63;;;16.83;57.83
56504;BME280;48812;51.606;-0.114;2023-04-28T06:18:17;100191.78;;;16.86;57.95
56504;BME280;48812;51.606;-0.114;2023-04-28T06:20:50;100201.41;;;16.89;58.54
56504;BME280;48812;51.606;-0.114;2023-04-28T06:23:24;100191.41;;;16.92;58.04
56504;BME280;48812;51.606;-0.114;2023-04-28T06:25:59;100196.59;;;16.95;58.24
56504;BME280;48812;51.606;-0.114;2023-04-28T06:28:31;100187.66;;;16.96;58.01
56504;BME280;48812;51.606;-0.114;2023-04-28T06:31:03;100195.50;;;17.00;57.69
56504;BME280;48812;51.606;-0.114;2023-04-28T06:33:35;100189.19;;;17.01;57.90
56504;BME280;48812;51.606;-0.114;2023-04-28T06:36:07;100204.22;;;17.03;58.09
56504;BME280;48812;51.606;-0.114;2023-04-28T06:38:40;100200.50;;;17.06;57.92
56504;BME280;48812;51.606;-0.114;2023-04-28T06:41:14;100198.63;;;17.08;58.46
56504;BME280;48812;51.606;-0.114;2023-04-28T06:43:49;100203.00;;;17.09;58.64
56504;BME280;48812;51.606;-0.114;2023-04-28T06:46:28;100203.81;;;17.11;58.19
56504;BME280;48812;51.606;-0.114;2023-04-28T06:49:00;100200.94;;;17.14;58.23
56504;BME280;48812;51.606;-0.114;2023-04-28T06:51:33;100205.25;;;17.17;58.30
56504;BME280;48812;51.606;-0.114;2023-04-28T06:54:06;100222.88;;;17.21;58.57
56504;BME280;48812;51.606;-0.114;2023-04-28T06:56:38;100213.81;;;17.23;57.92
56504;BME280;48812;51.606;-0.114;2023-04-28T06:59:10;100212.88;;;17.24;58.28
56504;BME280;48812;51.606;-0.114;2023-04-28T07:01:43;100218.06;;;17.27;58.60
56504;BME280;48812;51.606;-0.114;2023-04-28T07:04:15;100216.19;;;17.29;58.57
56504;BME280;48812;51.606;-0.114;2023-04-28T07:06:48;100224.97;;;17.31;58.25
56504;BME280;48812;51.606;-0.114;2023-04-28T07:09:20;100225.72;;;17.33;58.54
56504;BME280;48812;51.606;-0.114;2023-04-28T07:11:52;100220.31;;;17.35;58.49
56504;BME280;48812;51.606;-0.114;2023-04-28T07:14:24;100231.78;;;17.37;58.58
56504;BME280;48812;51.606;-0.114;2023-04-28T07:16:57;100228.16;;;17.38;58.90
56504;BME280;48812;51.606;-0.114;2023-04-28T07:19:30;100233.41;;;17.40;57.96
56504;BME280;48812;51.606;-0.114;2023-04-28T07:22:02;100240.50;;;17.41;58.50
56504;BME280;48812;51.606;-0.114;2023-04-28T07:24:34;100239.53;;;17.42;58.89
56504;BME280;48812;51.606;-0.114;2023-04-28T07:27:07;100238.59;;;17.43;59.04
56504;BME280;48812;51.606;-0.114;2023-04-28T07:29:39;100243.00;;;17.44;58.67
56504;BME280;48812;51.606;-0.114;2023-04-28T07:32:11;100244.72;;;17.45;58.67
56504;BME280;48812;51.606;-0.114;2023-04-28T07:34:45;100252.72;;;17.45;58.88
56504;BME280;48812;51.606;-0.114;2023-04-28T07:37:17;100243.78;;;17.46;58.09
56504;BME280;48812;51.606;-0.114;2023-04-28T07:39:49;100250.84;;;17.47;59.02
56504;BME280;48812;51.606;-0.114;2023-04-28T07:42:22;100249.91;;;17.48;59.19
56504;BME280;48812;51.606;-0.114;2023-04-28T07:44:54;100248.06;;;17.48;58.86
56504;BME280;48812;51.606;-0.114;2023-04-28T07:47:27;100261.34;;;17.50;58.75
56504;BME280;48812;51.606;-0.114;2023-04-28T07:50:00;100263.94;;;17.51;58.14
56504;BME280;48812;51.606;-0.114;2023-04-28T07:52:36;100272.84;;;17.52;58.42
56504;BME280;48812;51.606;-0.114;2023-04-28T07:55:08;100264.84;;;17.52;58.79
56504;BME280;48812;51.606;-0.114;2023-04-28T07:57:40;100266.53;;;17.53;58.62
56504;BME280;48812;51.606;-0.114;2023-04-28T08:00:13;100278.13;;;17.54;59.09
56504;BME280;48812;51.606;-0.114;2023-04-28T08:02:45;100278.00;;;17.55;59.35
56504;BME280;48812;51.606;-0.114;2023-04-28T08:05:18;100275.31;;;17.55;58.60
56504;BME280;48812;51.606;-0.114;2023-04-28T08:07:50;100276.22;;;17.56;58.75
56504;BME280;48812;51.606;-0.114;2023-04-28T08:10:23;100284.16;;;17.57;58.43
56504;BME280;48812;51.606;-0.114;2023-04-28T08:12:57;100290.34;;;17.58;58.90
56504;BME280;48812;51.606;-0.114;2023-04-28T08:15:31;100289.41;;;17.59;58.72
56504;BME280;48812;51.606;-0.114;2023-04-28T08:18:05;100283.09;;;17.60;58.49
56504;BME280;48812;51.606;-0.114;2023-04-28T08:20:38;100296.38;;;17.61;58.59
56504;BME280;48812;51.606;-0.114;2023-04-28T08:23:10;100285.69;;;17.61;58.22
56504;BME280;48812;51.606;-0.114;2023-04-28T08:25:42;100292.78;;;17.62;58.31
56504;BME280;48812;51.606;-0.114;2023-04-28T08:28:14;100292.78;;;17.62;58.53
56504;BME280;48812;51.606;-0.114;2023-04-28T08:30:46;100292.78;;;17.62;58.74
56504;BME280;48812;51.606;-0.114;2023-04-28T08:33:19;100292.78;;;17.62;59.14
56504;BME280;48812;51.606;-0.114;2023-04-28T08:35:51;100305.16;;;17.63;58.60
56504;BME280;48812;51.606;-0.114;2023-04-28T08:38:23;100299.81;;;17.63;58.56
56504;BME280;48812;51.606;-0.114;2023-04-28T08:40:56;100298.97;;;17.63;58.61
56504;BME280;48812;51.606;-0.114;2023-04-28T08:43:28;100301.56;;;17.64;58.56
56504;BME280;48812;51.606;-0.114;2023-04-28T08:46:04;100309.50;;;17.66;58.38
56504;BME280;48812;51.606;-0.114;2023-04-28T08:48:41;100307.69;;;17.66;58.83
56504;BME280;48812;51.606;-0.114;2023-04-28T08:51:24;100306.75;;;17.67;58.72
56504;BME280;48812;51.606;-0.114;2023-04-28T08:53:59;100304.84;;;17.69;59.13
56504;BME280;48812;51.606;-0.114;2023-04-28T08:56:36;100306.56;;;17.71;58.38
56504;BME280;48812;51.606;-0.114;2023-04-28T08:59:08;100307.44;;;17.71;57.91
56504;BME280;48812;51.606;-0.114;2023-04-28T09:01:41;100315.38;;;17.73;58.13
56504;BME280;48812;51.606;-0.114;2023-04-28T09:04:13;100321.50;;;17.75;58.50
56504;BME280;48812;51.606;-0.114;2023-04-28T09:06:47;100309.84;;;17.76;58.89
56504;BME280;48812;51.606;-0.114;2023-04-28T09:11:57;100314.06;;;17.80;58.42
56504;BME280;48812;51.606;-0.114;2023-04-28T09:14:30;100313.22;;;17.79;58.08
56504;BME280;48812;51.606;-0.114;2023-04-28T09:17:10;100320.22;;;17.82;58.97
56504;BME280;48812;51.606;-0.114;2023-04-28T09:19:47;100322.81;;;17.83;58.76
56504;BME280;48812;51.606;-0.114;2023-04-28T09:22:20;100325.41;;;17.85;58.28
56504;BME280;48812;51.606;-0.114;2023-04-28T09:25:09;100327.09;;;17.86;58.63
56504;BME280;48812;51.606;-0.114;2023-04-28T09:27:41;100325.19;;;17.88;58.27
56504;BME280;48812;51.606;-0.114;2023-04-28T09:30:13;100339.53;;;17.87;58.63
56504;BME280;48812;51.606;-0.114;2023-04-28T09:32:53;100334.19;;;17.87;59.08
56504;BME280;48812;51.606;-0.114;2023-04-28T09:35:38;100332.44;;;17.86;58.12
56504;BME280;48812;51.606;-0.114;2023-04-28T09:38:11;100329.78;;;17.86;58.15
56504;BME280;48812;51.606;-0.114;2023-04-28T09:43:23;100345.06;;;17.84;58.49
56504;BME280;48812;51.606;-0.114;2023-04-28T09:45:56;100349.56;;;17.83;57.72
56504;BME280;48812;51.606;-0.114;2023-04-28T09:48:33;100354.00;;;17.83;58.09
56504;BME280;48812;51.606;-0.114;2023-04-28T09:51:06;100346.97;;;17.82;58.33
56504;BME280;48812;51.606;-0.114;2023-04-28T09:53:41;100353.16;;;17.82;57.93
56504;BME280;48812;51.606;-0.114;2023-04-28T09:56:13;100354.00;;;17.83;58.03
56504;BME280;48812;51.606;-0.114;2023-04-28T09:58:45;100353.06;;;17.84;58.21
56504;BME280;48812;51.606;-0.114;2023-04-28T10:01:19;100362.84;;;17.85;58.10
56504;BME280;48812;51.606;-0.114;2023-04-28T10:03:51;100367.22;;;17.86;58.31
56504;BME280;48812;51.606;-0.114;2023-04-28T10:06:26;100360.94;;;17.87;58.74
56504;BME280;48812;51.606;-0.114;2023-04-28T10:08:59;100368.00;;;17.88;58.59
56504;BME280;48812;51.606;-0.114;2023-04-28T10:11:32;100368.88;;;17.88;57.99
56504;BME280;48812;51.606;-0.114;2023-04-28T10:14:05;100375.06;;;17.89;58.45
56504;BME280;48812;51.606;-0.114;2023-04-28T10:16:37;100371.47;;;17.90;57.86
56504;BME280;48812;51.606;-0.114;2023-04-28T10:19:10;100385.69;;;17.91;57.86
56504;BME280;48812;51.606;-0.114;2023-04-28T10:21:43;100384.75;;;17.92;58.33
56504;BME280;48812;51.606;-0.114;2023-04-28T10:24:21;100390.97;;;17.92;57.79
56504;BME280;48812;51.606;-0.114;2023-04-28T10:29:30;100403.41;;;17.93;57.85
56504;BME280;48812;51.606;-0.114;2023-04-28T10:34:51;100402.59;;;17.91;57.87
56504;BME280;48812;51.606;-0.114;2023-04-28T10:38:01;100410.63;;;17.91;57.87
56504;BME280;48812;51.606;-0.114;2023-04-28T10:40:31;100412.44;;;17.91;58.70
56504;BME280;48812;51.606;-0.114;2023-04-28T10:43:07;100420.47;;;17.91;58.13
56504;BME280;48812;51.606;-0.114;2023-04-28T10:45:57;100419.63;;;17.90;58.66
56504;BME280;48812;51.606;-0.114;2023-04-28T10:58:51;100426.66;;;17.91;57.91
56504;BME280;48812;51.606;-0.114;2023-04-28T11:01:24;100432.81;;;17.93;58.10
56504;BME280;48812;51.606;-0.114;2023-04-28T11:03:57;100427.38;;;17.95;58.52
56504;BME280;48812;51.606;-0.114;2023-04-28T11:06:36;100434.44;;;17.96;57.82
56504;BME280;48812;51.606;-0.114;2023-04-28T11:14:32;100446.00;;;17.96;57.77
56504;BME280;48812;51.606;-0.114;2023-04-28T11:17:08;100438.94;;;17.95;58.30
56504;BME280;48812;51.606;-0.114;2023-04-28T11:19:44;100438.09;;;17.95;58.31
56504;BME280;48812;51.606;-0.114;2023-04-28T11:24:59;100441.78;;;17.92;58.30
56504;BME280;48812;51.606;-0.114;2023-04-28T11:27:32;100445.38;;;17.91;58.18
56504;BME280;48812;51.606;-0.114;2023-04-28T11:30:18;100439.28;;;17.89;58.32
56504;BME280;48812;51.606;-0.114;2023-04-28T11:32:51;100447.38;;;17.87;57.85
56504;BME280;48812;51.606;-0.114;2023-04-28T11:35:23;100450.13;;;17.86;58.46
56504;BME280;48812;51.606;-0.114;2023-04-28T11:38:02;100458.16;;;17.86;58.23
56504;BME280;48812;51.606;-0.114;2023-04-28T11:40:35;100453.69;;;17.86;58.60
56504;BME280;48812;51.606;-0.114;2023-04-28T11:43:07;100457.22;;;17.87;58.34
56504;BME280;48812;51.606;-0.114;2023-04-28T11:45:44;100460.66;;;17.89;57.95
56504;BME280;48812;51.606;-0.114;2023-04-28T11:48:20;100458.75;;;17.91;57.80
56504;BME280;48812;51.606;-0.114;2023-04-28T11:50:53;100451.53;;;17.93;58.52
56504;BME280;48812;51.606;-0.114;2023-04-28T11:56:13;100461.88;;;17.99;57.94
56504;BME280;48812;51.606;-0.114;2023-04-28T11:58:58;100449.31;;;18.01;58.22
56504;BME280;48812;51.606;-0.114;2023-04-28T12:01:32;100459.81;;;18.04;57.97
56504;BME280;48812;51.606;-0.114;2023-04-28T12:04:05;100465.97;;;18.06;58.53
56504;BME280;48812;51.606;-0.114;2023-04-28T12:06:38;100473.94;;;18.08;58.06
56504;BME280;48812;51.606;-0.114;2023-04-28T12:09:17;100475.72;;;18.08;58.12
56504;BME280;48812;51.606;-0.114;2023-04-28T12:11:55;100473.03;;;18.08;57.24
56504;BME280;48812;51.606;-0.114;2023-04-28T12:14:28;100472.19;;;18.07;57.73
56504;BME280;48812;51.606;-0.114;2023-04-28T12:17:01;100476.69;;;18.06;58.51
56504;BME280;48812;51.606;-0.114;2023-04-28T12:19:41;100478.47;;;18.06;58.13
56504;BME280;48812;51.606;-0.114;2023-04-28T12:22:15;100479.34;;;18.06;57.79
56504;BME280;48812;51.606;-0.114;2023-04-28T12:25:04;100484.72;;;18.06;57.73
56504;BME280;48812;51.606;-0.114;2023-04-28T12:27:38;100483.81;;;18.06;58.12
56504;BME280;48812;51.606;-0.114;2023-04-28T12:32:54;100495.56;;;18.03;57.73
56504;BME280;48812;51.606;-0.114;2023-04-28T12:35:27;100498.31;;;18.02;58.47
56504;BME280;48812;51.606;-0.114;2023-04-28T12:37:59;100506.28;;;18.03;58.13
56504;BME280;48812;51.606;-0.114;2023-04-28T12:40:32;100506.28;;;18.03;57.65
56504;BME280;48812;51.606;-0.114;2023-04-28T12:43:04;100508.78;;;18.06;58.13
56504;BME280;48812;51.606;-0.114;2023-04-28T12:45:36;100510.41;;;18.09;58.33
56504;BME280;48812;51.606;-0.114;2023-04-28T12:48:09;100501.28;;;18.13;58.11
56504;BME280;48812;51.606;-0.114;2023-04-28T12:50:42;100517.19;;;18.16;58.11
56504;BME280;48812;51.606;-0.114;2023-04-28T12:53:14;100522.47;;;18.18;58.26
56504;BME280;48812;51.606;-0.114;2023-04-28T12:55:46;100518.81;;;18.19;58.24
56504;BME280;48812;51.606;-0.114;2023-04-28T12:58:18;100525.91;;;18.20;58.01
56504;BME280;48812;51.606;-0.114;2023-04-28T13:00:50;100526.69;;;18.22;57.45
56504;BME280;48812;51.606;-0.114;2023-04-28T13:03:22;100528.34;;;18.24;58.05
56504;BME280;48812;51.606;-0.114;2023-04-28T13:05:55;100531.88;;;18.25;58.19
56504;BME280;48812;51.606;-0.114;2023-04-28T13:08:27;100534.63;;;18.23;58.05
56504;BME280;48812;51.606;-0.114;2023-04-28T13:11:01;100532.88;;;18.22;57.59
56504;BME280;48812;51.606;-0.114;2023-04-28T13:13:52;100538.25;;;18.22;58.27
56504;BME280;48812;51.606;-0.114;2023-04-28T13:16:24;100548.94;;;18.22;58.14
56504;BME280;48812;51.606;-0.114;2023-04-28T13:19:02;100548.88;;;18.24;57.42
56504;BME280;48812;51.606;-0.114;2023-04-28T13:21:34;100555.03;;;18.26;57.78
56504;BME280;48812;51.606;-0.114;2023-04-28T13:24:10;100553.13;;;18.28;58.41
56504;BME280;48812;51.606;-0.114;2023-04-28T13:26:42;100558.31;;;18.31;57.85
56504;BME280;48812;51.606;-0.114;2023-04-28T13:29:15;100552.00;;;18.32;57.63
56504;BME280;48812;51.606;-0.114;2023-04-28T13:31:49;100551.84;;;18.35;58.20
56504;BME280;48812;51.606;-0.114;2023-04-28T13:34:22;100555.22;;;18.39;57.83
56504;BME280;48812;51.606;-0.114;2023-04-28T13:36:54;100561.31;;;18.42;57.49
56504;BME280;48812;51.606;-0.114;2023-04-28T13:39:26;100566.47;;;18.46;57.98
56504;BME280;48812;51.606;-0.114;2023-04-28T13:41:59;100568.22;;;18.47;58.00
56504;BME280;48812;51.606;-0.114;2023-04-28T13:44:32;100568.03;;;18.50;57.25
56504;BME280;48812;51.606;-0.114;2023-04-28T13:47:04;100566.66;;;18.58;57.53
56504;BME280;48812;51.606;-0.114;2023-04-28T13:49:40;100573.44;;;18.66;57.83